createdAt,value
2023-01-30T00:01:35.124Z,97461.09
2023-01-30T00:04:03.564Z,97452.34
2023-01-30T00:06:31.828Z,97458.72
2023-01-30T00:09:00.677Z,97450.34
2023-01-30T00:11:30.210Z,97458.13
2023-01-30T00:13:59.120Z,97451.97
2023-01-30T00:16:27.488Z,97456.94
2023-01-30T00:18:57.252Z,97447.06
2023-01-30T00:21:25.629Z,97463.72
2023-01-30T00:23:54.468Z,97446.25
2023-01-30T00:26:26.405Z,97445.88
2023-01-30T00:28:55.114Z,97443.56
2023-01-30T00:31:24.375Z,97440.22
2023-01-30T00:33:52.832Z,97425.84
2023-01-30T00:36:25.824Z,97432.22
2023-01-30T00:38:54.758Z,97423.59
2023-01-30T00:41:23.261Z,97428.13
2023-01-30T00:44:09.312Z,97420.25
2023-01-30T00:46:58.372Z,97421.06
2023-01-30T00:49:27.781Z,97418.63
2023-01-30T00:51:57.468Z,97409.78
2023-01-30T00:54:25.849Z,97406.50
2023-01-30T00:56:54.213Z,97398.03
2023-01-30T00:59:27.379Z,97401.31
2023-01-30T01:01:56.053Z,97393.53
2023-01-30T01:04:24.508Z,97384.66
2023-01-30T01:06:53.085Z,97375.63
2023-01-30T01:09:22.737Z,97367.00
2023-01-30T01:11:50.990Z,97375.38
2023-01-30T01:14:19.269Z,97363.28
2023-01-30T01:16:48.558Z,97368.41
2023-01-30T01:19:16.840Z,97368.84
2023-01-30T01:21:45.365Z,97365.38
2023-01-30T01:24:16.556Z,97362.69
2023-01-30T01:26:46.825Z,97366.41
2023-01-30T01:29:17.138Z,97373.38
2023-01-30T01:31:46.061Z,97373.16
2023-01-30T01:34:17.467Z,97377.09
2023-01-30T01:36:54.293Z,97376.28
2023-01-30T01:39:23.778Z,97385.81
2023-01-30T01:41:52.618Z,97376.72
2023-01-30T01:44:20.940Z,97382.31
2023-01-30T01:46:55.943Z,97379.50
2023-01-30T01:49:30.151Z,97390.03
2023-01-30T01:52:05.315Z,97390.84
2023-01-30T01:54:41.231Z,97407.13
2023-01-30T01:57:19.613Z,97423.28
2023-01-30T01:59:57.801Z,97434.38
2023-01-30T02:02:27.317Z,97435.41
2023-01-30T02:05:03.340Z,97426.94
2023-01-30T02:07:39.220Z,97428.19
2023-01-30T02:10:18.894Z,97413.00
2023-01-30T02:12:52.843Z,97408.09
2023-01-30T02:15:23.651Z,97411.44
2023-01-30T02:17:52.017Z,97407.94
2023-01-30T02:20:38.046Z,97413.97
2023-01-30T02:24:01.060Z,97412.81
2023-01-30T02:27:38.044Z,97406.94
2023-01-30T02:30:46.054Z,97396.44
2023-01-30T02:33:20.697Z,97396.88
2023-01-30T02:36:04.859Z,97379.63
2023-01-30T02:38:49.110Z,97369.16
2023-01-30T02:41:30.340Z,97368.25
2023-01-30T02:44:05.980Z,97378.41
2023-01-30T02:46:47.752Z,97377.31
2023-01-30T02:49:22.049Z,97378.16
2023-01-30T02:51:53.614Z,97379.69
2023-01-30T02:54:22.365Z,97369.97
2023-01-30T02:56:54.739Z,97359.97
2023-01-30T02:59:33.491Z,97362.31
2023-01-30T03:02:50.793Z,97360.34
2023-01-30T03:06:01.069Z,97366.06
2023-01-30T03:08:41.777Z,97373.03
2023-01-30T03:11:12.273Z,97355.38
2023-01-30T03:13:56.785Z,97344.88
2023-01-30T03:16:32.837Z,97343.34
2023-01-30T03:19:04.711Z,97325.47
2023-01-30T03:21:34.271Z,97312.06
2023-01-30T03:24:02.989Z,97310.56
2023-01-30T03:26:38.841Z,97292.38
2023-01-30T03:29:11.269Z,97274.13
2023-01-30T03:31:40.091Z,97287.50
2023-01-30T03:34:13.796Z,97313.22
2023-01-30T03:36:45.831Z,97320.78
2023-01-30T03:39:15.045Z,97327.41
2023-01-30T03:41:43.854Z,97326.63
2023-01-30T03:44:12.273Z,97319.16
2023-01-30T03:46:46.182Z,97339.19
2023-01-30T03:49:15.944Z,97329.53
2023-01-30T03:51:44.332Z,97327.31
2023-01-30T03:54:12.918Z,97323.47
2023-01-30T03:56:41.524Z,97312.38
2023-01-30T03:59:10.552Z,97316.59
2023-01-30T04:01:49.741Z,97301.78
2023-01-30T04:04:19.539Z,97303.19
2023-01-30T04:06:47.990Z,97286.44
2023-01-30T04:09:16.767Z,97267.56
2023-01-30T04:11:48.684Z,97256.28
2023-01-30T04:14:18.334Z,97249.34
2023-01-30T04:17:06.919Z,97237.69
2023-01-30T04:19:59.693Z,97238.13
2023-01-30T04:22:31.938Z,97243.25
2023-01-30T04:25:00.385Z,97242.91
2023-01-30T04:27:32.143Z,97257.56
2023-01-30T04:30:24.161Z,97264.41
2023-01-30T04:32:57.388Z,97265.81
2023-01-30T04:35:27.166Z,97258.84
2023-01-30T04:37:55.595Z,97263.34
2023-01-30T04:40:23.981Z,97246.50
2023-01-30T04:42:52.290Z,97240.56
2023-01-30T04:45:39.255Z,97252.53
2023-01-30T04:48:07.755Z,97261.84
2023-01-30T04:50:38.136Z,97263.34
2023-01-30T04:53:08.283Z,97245.13
2023-01-30T04:55:36.924Z,97238.94
2023-01-30T04:58:05.434Z,97257.78
2023-01-30T05:00:34.161Z,97245.47
2023-01-30T05:03:02.849Z,97255.47
2023-01-30T05:05:31.619Z,97235.13
2023-01-30T05:08:01.714Z,97234.66
2023-01-30T05:10:30.206Z,97243.59
2023-01-30T05:13:03.442Z,97221.75
2023-01-30T05:15:32.439Z,97223.72
2023-01-30T05:18:01.486Z,97209.09
2023-01-30T05:20:29.837Z,97209.09
2023-01-30T05:22:58.348Z,97206.75
2023-01-30T05:25:28.117Z,97199.19
2023-01-30T05:27:57.206Z,97205.47
2023-01-30T05:30:25.686Z,97215.81
2023-01-30T05:32:54.570Z,97232.56
2023-01-30T05:35:22.865Z,97235.47
2023-01-30T05:37:55.466Z,97255.38
2023-01-30T05:40:24.104Z,97247.44
2023-01-30T05:42:53.684Z,97242.91
2023-01-30T05:45:22.861Z,97242.66
2023-01-30T05:47:56.367Z,97235.94
2023-01-30T05:50:26.997Z,97233.94
2023-01-30T05:52:55.327Z,97243.25
2023-01-30T05:55:24.216Z,97232.19
2023-01-30T05:57:53.840Z,97223.13
2023-01-30T06:00:23.375Z,97226.13
2023-01-30T06:02:51.758Z,97223.22
2023-01-30T06:05:20.280Z,97208.22
2023-01-30T06:07:48.632Z,97221.84
2023-01-30T06:10:17.675Z,97222.41
2023-01-30T06:12:46.322Z,97205.31
2023-01-30T06:15:16.573Z,97214.25
2023-01-30T06:17:45.491Z,97198.97
2023-01-30T06:20:14.527Z,97220.41
2023-01-30T06:22:43.159Z,97226.38
2023-01-30T06:25:12.377Z,97218.66
2023-01-30T06:27:40.652Z,97211.44
2023-01-30T06:30:10.989Z,97208.03
2023-01-30T06:32:41.538Z,97206.78
2023-01-30T06:35:10.837Z,97218.28
2023-01-30T06:37:39.277Z,97204.91
2023-01-30T06:40:09.063Z,97220.72
2023-01-30T06:42:40.668Z,97209.53
2023-01-30T06:45:10.828Z,97213.34
2023-01-30T06:47:48.190Z,97202.97
2023-01-30T06:50:19.019Z,97200.88
2023-01-30T06:52:50.415Z,97202.72
2023-01-30T06:55:22.158Z,97212.97
2023-01-30T06:57:51.986Z,97206.09
2023-01-30T07:00:21.889Z,97200.97
2023-01-30T07:02:51.589Z,97211.94
2023-01-30T07:05:20.511Z,97204.78
2023-01-30T07:07:49.057Z,97196.28
2023-01-30T07:10:18.230Z,97201.41
2023-01-30T07:12:47.403Z,97190.53
2023-01-30T07:15:16.490Z,97194.84
2023-01-30T07:17:44.988Z,97202.50
2023-01-30T07:20:15.175Z,97200.06
2023-01-30T07:22:43.874Z,97197.38
2023-01-30T07:25:12.322Z,97196.44
2023-01-30T07:27:41.219Z,97191.72
2023-01-30T07:30:11.333Z,97192.53
2023-01-30T07:32:39.679Z,97179.94
2023-01-30T07:35:08.892Z,97182.38
2023-01-30T07:37:38.795Z,97176.78
2023-01-30T07:40:10.399Z,97182.47
2023-01-30T07:42:38.642Z,97181.66
2023-01-30T07:45:08.576Z,97168.41
2023-01-30T07:47:37.541Z,97167.50
2023-01-30T07:50:07.632Z,97170.38
2023-01-30T07:52:36.249Z,97163.44
2023-01-30T07:55:06.907Z,97166.13
2023-01-30T07:57:35.583Z,97152.31
2023-01-30T08:00:05.896Z,97150.78
2023-01-30T08:02:37.358Z,97151.16
2023-01-30T08:05:07.081Z,97152.47
2023-01-30T08:07:35.694Z,97135.78
2023-01-30T08:10:06.143Z,97146.88
2023-01-30T08:12:34.795Z,97142.06
2023-01-30T08:15:03.678Z,97144.50
2023-01-30T08:17:32.035Z,97162.31
2023-01-30T08:20:00.374Z,97160.00
2023-01-30T08:22:33.498Z,97159.34
2023-01-30T08:25:02.088Z,97156.78
2023-01-30T08:27:31.723Z,97143.09
2023-01-30T08:30:00.311Z,97143.72
2023-01-30T08:32:28.967Z,97133.97
2023-01-30T08:34:57.293Z,97122.63
2023-01-30T08:37:25.605Z,97127.84
2023-01-30T08:39:54.423Z,97125.09
2023-01-30T08:42:22.827Z,97122.47
2023-01-30T08:44:55.802Z,97115.59
2023-01-30T08:47:24.159Z,97121.66
2023-01-30T08:49:54.347Z,97108.38
2023-01-30T08:52:23.136Z,97116.75
2023-01-30T08:54:51.422Z,97111.59
2023-01-30T08:57:19.758Z,97129.88
2023-01-30T08:59:48.065Z,97123.41
2023-01-30T09:02:18.055Z,97119.19
2023-01-30T09:04:47.268Z,97128.50
2023-01-30T09:07:19.222Z,97119.63
2023-01-30T09:09:48.640Z,97114.16
2023-01-30T09:12:17.095Z,97100.56
2023-01-30T09:14:45.407Z,97098.78
2023-01-30T09:17:14.436Z,97080.03
2023-01-30T09:19:44.112Z,97082.47
2023-01-30T09:22:12.593Z,97089.88
2023-01-30T09:24:41.011Z,97082.78
2023-01-30T09:27:09.800Z,97092.47
2023-01-30T09:29:38.668Z,97087.53
2023-01-30T09:32:07.316Z,97092.78
2023-01-30T09:34:35.668Z,97082.47
2023-01-30T09:37:05.348Z,97065.97
2023-01-30T09:39:33.721Z,97079.91
2023-01-30T09:42:37.985Z,97080.41
2023-01-30T09:45:49.443Z,97074.50
2023-01-30T09:48:25.457Z,97066.22
2023-01-30T09:51:32.529Z,97042.28
2023-01-30T09:54:18.231Z,97047.44
2023-01-30T09:56:47.187Z,97039.97
2023-01-30T09:59:27.077Z,97053.75
2023-01-30T10:02:06.601Z,97055.75
2023-01-30T10:04:40.373Z,97035.97
2023-01-30T10:07:24.508Z,97022.28
2023-01-30T10:10:10.115Z,97028.41
2023-01-30T10:12:56.422Z,97024.66
2023-01-30T10:15:47.563Z,97023.81
2023-01-30T10:18:55.056Z,97012.31
2023-01-30T10:21:39.471Z,97009.91
2023-01-30T10:24:35.745Z,97007.47
2023-01-30T10:27:12.234Z,97014.69
2023-01-30T10:29:45.773Z,97017.75
2023-01-30T10:32:20.689Z,97002.41
2023-01-30T10:34:55.091Z,96993.94
2023-01-30T10:37:30.942Z,97011.63
2023-01-30T10:40:14.115Z,96990.78
2023-01-30T10:42:55.059Z,96978.97
2023-01-30T10:45:36.504Z,96980.69
2023-01-30T10:48:45.498Z,96965.56
2023-01-30T10:51:29.583Z,96961.22
2023-01-30T10:54:04.785Z,96965.75
2023-01-30T10:56:45.118Z,96965.97
2023-01-30T10:59:29.884Z,96972.22
2023-01-30T11:02:12.556Z,96978.13
2023-01-30T11:04:50.729Z,96978.09
2023-01-30T11:07:19.486Z,96968.66
2023-01-30T11:09:49.811Z,96968.13
2023-01-30T11:12:18.202Z,96969.78
2023-01-30T11:14:59.857Z,96962.47
2023-01-30T11:17:36.404Z,96987.75
2023-01-30T11:20:14.688Z,96975.34
2023-01-30T11:22:54.694Z,96966.81
2023-01-30T11:25:24.606Z,96975.97
2023-01-30T11:28:01.827Z,96963.56
2023-01-30T11:30:36.629Z,96948.25
2023-01-30T11:33:15.122Z,96947.97
2023-01-30T11:35:55.100Z,96957.97
2023-01-30T11:38:27.333Z,96956.56
2023-01-30T11:41:20.834Z,96955.00
2023-01-30T11:43:49.835Z,96954.66
2023-01-30T11:46:21.989Z,96951.72
2023-01-30T11:49:02.551Z,96953.63
2023-01-30T11:51:49.012Z,96940.97
2023-01-30T11:54:29.160Z,96929.66
2023-01-30T11:57:00.096Z,96940.94
2023-01-30T11:59:36.929Z,96935.88
2023-01-30T12:02:20.907Z,96925.69
2023-01-30T12:04:54.071Z,96921.41
2023-01-30T12:07:25.705Z,96917.84
2023-01-30T12:09:55.324Z,96924.09
2023-01-30T12:12:34.937Z,96920.56
2023-01-30T12:15:20.049Z,96923.00
2023-01-30T12:18:02.229Z,96913.31
2023-01-30T12:20:47.837Z,96903.34
2023-01-30T12:23:26.788Z,96917.59
2023-01-30T12:26:06.373Z,96917.34
2023-01-30T12:28:44.744Z,96912.75
2023-01-30T12:31:20.261Z,96911.09
2023-01-30T12:33:50.408Z,96903.84
2023-01-30T12:36:34.792Z,96912.47
2023-01-30T12:39:24.075Z,96905.50
2023-01-30T12:42:29.881Z,96907.16
2023-01-30T12:45:21.334Z,96906.84
2023-01-30T12:48:14.989Z,96906.75
2023-01-30T12:51:01.235Z,96917.53
2023-01-30T12:53:44.390Z,96926.94
2023-01-30T12:56:43.579Z,96906.72
2023-01-30T12:59:22.520Z,96920.13
2023-01-30T13:02:25.577Z,96925.44
2023-01-30T13:05:21.325Z,96929.50
2023-01-30T13:08:22.767Z,96929.19
2023-01-30T13:11:05.037Z,96937.78
2023-01-30T13:13:45.168Z,96942.31
2023-01-30T13:16:28.596Z,96945.59
2023-01-30T13:19:06.240Z,96953.41
2023-01-30T13:21:45.049Z,96961.22
2023-01-30T13:24:27.194Z,96956.34
2023-01-30T13:27:00.452Z,96965.72
2023-01-30T13:29:36.561Z,96965.19
2023-01-30T13:32:12.933Z,96971.13
2023-01-30T13:34:46.213Z,96976.53
2023-01-30T13:37:16.855Z,96972.19
2023-01-30T13:39:52.414Z,96973.78
2023-01-30T13:42:33.736Z,96986.06
2023-01-30T13:45:05.393Z,96987.16
2023-01-30T13:47:53.377Z,96998.44
2023-01-30T13:50:46.666Z,96996.81
2023-01-30T13:53:28.053Z,96993.09
2023-01-30T13:56:27.037Z,96998.44
2023-01-30T13:59:08.743Z,96995.16
2023-01-30T14:02:17.889Z,96994.09
2023-01-30T14:04:52.362Z,97008.41
2023-01-30T14:07:27.935Z,96995.78
2023-01-30T14:10:20.442Z,97005.44
2023-01-30T14:12:53.674Z,97007.38
2023-01-30T14:15:31.839Z,96995.84
2023-01-30T14:18:07.199Z,97022.44
2023-01-30T14:20:38.019Z,97006.31
2023-01-30T14:23:20.324Z,97001.72
2023-01-30T14:25:52.144Z,96996.88
2023-01-30T14:28:52.132Z,96995.84
2023-01-30T14:31:54.566Z,96979.19
2023-01-30T14:34:45.775Z,96979.72
2023-01-30T14:38:10.909Z,96987.81
2023-01-30T14:40:49.040Z,96975.22
2023-01-30T14:44:03.882Z,96986.81
2023-01-30T14:46:59.820Z,96996.22
2023-01-30T14:49:34.371Z,96997.31
2023-01-30T14:52:05.179Z,97014.31
2023-01-30T14:54:44.135Z,97015.94
2023-01-30T14:57:27.679Z,97011.63
2023-01-30T15:00:17.094Z,97003.53
2023-01-30T15:02:53.675Z,96999.47
2023-01-30T15:05:31.958Z,96995.97
2023-01-30T15:08:09.224Z,96989.47
2023-01-30T15:11:19.098Z,96999.72
2023-01-30T15:14:07.748Z,97010.84
2023-01-30T15:17:08.009Z,97012.97
2023-01-30T15:20:05.173Z,97022.97
2023-01-30T15:22:55.570Z,97009.78
2023-01-30T15:26:02.756Z,97019.75
2023-01-30T15:28:44.376Z,97023.56
2023-01-30T15:31:19.430Z,97018.97
2023-01-30T15:33:51.709Z,97029.50
2023-01-30T15:36:26.938Z,97042.69
2023-01-30T15:39:03.636Z,97051.56
2023-01-30T15:41:40.563Z,97052.16
2023-01-30T15:44:40.586Z,97065.38
2023-01-30T15:47:27.367Z,97076.16
2023-01-30T15:50:03.314Z,97092.88
2023-01-30T15:52:45.014Z,97099.81
2023-01-30T15:55:21.366Z,97093.41
2023-01-30T15:57:57.160Z,97103.88
2023-01-30T16:00:33.105Z,97112.25
2023-01-30T16:03:04.600Z,97107.97
2023-01-30T16:05:34.334Z,97104.47
2023-01-30T16:08:22.534Z,97116.88
2023-01-30T16:10:51.763Z,97132.78
2023-01-30T16:13:23.337Z,97132.28
2023-01-30T16:15:58.997Z,97123.16
2023-01-30T16:18:34.425Z,97127.19
2023-01-30T16:21:08.575Z,97129.44
2023-01-30T16:23:42.908Z,97152.09
2023-01-30T16:26:18.053Z,97150.81
2023-01-30T16:28:47.260Z,97175.91
2023-01-30T16:31:16.514Z,97171.34
2023-01-30T16:33:52.038Z,97167.88
2023-01-30T16:36:50.572Z,97172.22
2023-01-30T16:39:31.001Z,97166.78
2023-01-30T16:42:02.289Z,97169.22
2023-01-30T16:44:32.243Z,97161.38
2023-01-30T16:47:06.402Z,97159.53
2023-01-30T16:49:47.251Z,97165.75
2023-01-30T16:52:23.927Z,97162.78
2023-01-30T16:54:55.681Z,97159.28
2023-01-30T16:57:36.317Z,97169.78
2023-01-30T17:00:22.317Z,97185.69
2023-01-30T17:02:56.086Z,97201.03
2023-01-30T17:05:28.662Z,97187.00
2023-01-30T17:08:00.581Z,97201.56
2023-01-30T17:10:56.076Z,97209.97
2023-01-30T17:13:38.822Z,97200.78
2023-01-30T17:16:33.926Z,97203.72
2023-01-30T17:19:06.886Z,97199.13
2023-01-30T17:21:45.662Z,97196.16
2023-01-30T17:24:19.708Z,97195.09
2023-01-30T17:26:59.111Z,97198.31
2023-01-30T17:29:41.981Z,97200.69
2023-01-30T17:32:14.284Z,97213.56
2023-01-30T17:34:43.593Z,97220.31
2023-01-30T17:37:22.428Z,97224.34
2023-01-30T17:39:52.127Z,97228.16
2023-01-30T17:42:22.242Z,97236.78
2023-01-30T17:44:51.176Z,97236.31
2023-01-30T17:47:19.556Z,97239.56
2023-01-30T17:49:48.484Z,97248.47
2023-01-30T17:52:18.693Z,97257.63
2023-01-30T17:54:48.501Z,97268.69
2023-01-30T17:57:18.278Z,97289.47
2023-01-30T17:59:46.948Z,97283.00
2023-01-30T18:02:15.772Z,97279.47
2023-01-30T18:04:44.054Z,97281.13
2023-01-30T18:07:16.568Z,97288.13
2023-01-30T18:09:45.147Z,97289.97
2023-01-30T18:12:13.785Z,97291.63
2023-01-30T18:14:43.404Z,97285.69
2023-01-30T18:17:12.544Z,97302.41
2023-01-30T18:19:41.199Z,97306.41
2023-01-30T18:22:09.480Z,97311.53
2023-01-30T18:24:37.851Z,97309.41
2023-01-30T18:27:06.561Z,97320.44
2023-01-30T18:29:34.855Z,97312.41
2023-01-30T18:32:05.877Z,97319.16
2023-01-30T18:34:35.318Z,97321.03
2023-01-30T18:37:03.590Z,97314.00
2023-01-30T18:39:32.956Z,97305.13
2023-01-30T18:42:02.104Z,97309.44
2023-01-30T18:44:30.703Z,97307.81
2023-01-30T18:46:59.224Z,97313.53
2023-01-30T18:49:29.045Z,97304.66
2023-01-30T18:51:57.472Z,97298.97
2023-01-30T18:54:26.193Z,97293.03
2023-01-30T18:56:54.481Z,97289.81
2023-01-30T18:59:23.119Z,97315.97
2023-01-30T19:01:51.459Z,97301.41
2023-01-30T19:04:20.106Z,97306.00
2023-01-30T19:06:49.909Z,97312.19
2023-01-30T19:09:19.380Z,97323.53
2023-01-30T19:12:05.294Z,97331.63
2023-01-30T19:14:33.679Z,97324.06
2023-01-30T19:17:02.075Z,97327.25
2023-01-30T19:19:30.527Z,97331.56
2023-01-30T19:22:00.216Z,97360.38
2023-01-30T19:24:28.985Z,97338.81
2023-01-30T19:26:57.601Z,97338.03
2023-01-30T19:29:25.912Z,97338.28
2023-01-30T19:31:54.350Z,97349.34
2023-01-30T19:34:23.050Z,97349.34
2023-01-30T19:36:51.348Z,97351.78
2023-01-30T19:39:21.374Z,97356.09
2023-01-30T19:41:49.776Z,97357.69
2023-01-30T19:44:18.750Z,97356.09
2023-01-30T19:46:47.324Z,97349.34
2023-01-30T19:49:16.088Z,97353.69
2023-01-30T19:51:44.833Z,97360.38
2023-01-30T19:54:13.741Z,97350.66
2023-01-30T19:56:47.459Z,97350.41
2023-01-30T19:59:16.644Z,97343.38
2023-01-30T20:01:45.005Z,97343.94
2023-01-30T20:04:14.025Z,97354.97
2023-01-30T20:06:46.033Z,97361.44
2023-01-30T20:09:16.453Z,97363.31
2023-01-30T20:11:46.285Z,97367.13
2023-01-30T20:14:14.737Z,97368.81
2023-01-30T20:16:43.435Z,97371.47
2023-01-30T20:19:16.776Z,97383.06
2023-01-30T20:21:45.927Z,97375.50
2023-01-30T20:24:15.827Z,97387.09
2023-01-30T20:26:48.265Z,97395.44
2023-01-30T20:29:17.985Z,97390.59
2023-01-30T20:31:47.154Z,97400.53
2023-01-30T20:34:16.581Z,97401.63
2023-01-30T20:36:45.705Z,97396.28
2023-01-30T20:39:16.868Z,97402.50
2023-01-30T20:41:46.995Z,97394.94
2023-01-30T20:44:16.230Z,97383.09
2023-01-30T20:46:46.800Z,97390.94
2023-01-30T20:49:18.598Z,97407.38
2023-01-30T20:51:47.879Z,97401.19
2023-01-30T20:54:17.876Z,97403.66
2023-01-30T20:56:50.679Z,97417.69
2023-01-30T20:59:24.050Z,97416.59
2023-01-30T21:01:53.265Z,97413.66
2023-01-30T21:04:24.255Z,97409.31
2023-01-30T21:06:53.036Z,97416.09
2023-01-30T21:09:24.223Z,97423.59
2023-01-30T21:11:55.369Z,97417.69
2023-01-30T21:14:26.848Z,97416.63
2023-01-30T21:16:55.675Z,97419.03
2023-01-30T21:19:24.713Z,97419.88
2023-01-30T21:21:55.344Z,97420.69
2023-01-30T21:24:27.394Z,97435.50
2023-01-30T21:26:57.813Z,97429.88
2023-01-30T21:29:28.867Z,97442.84
2023-01-30T21:31:59.025Z,97445.53
2023-01-30T21:34:27.582Z,97445.28
2023-01-30T21:37:13.415Z,97445.53
2023-01-30T21:40:00.070Z,97440.13
2023-01-30T21:42:47.355Z,97443.34
2023-01-30T21:45:16.495Z,97442.50
2023-01-30T21:47:48.449Z,97448.44
2023-01-30T21:50:17.785Z,97449.50
2023-01-30T21:52:46.474Z,97449.25
2023-01-30T21:55:15.337Z,97450.06
2023-01-30T21:57:45.293Z,97434.50
2023-01-30T22:00:15.612Z,97452.25
2023-01-30T22:02:44.168Z,97452.47
2023-01-30T22:05:12.599Z,97455.13
2023-01-30T22:07:40.892Z,97458.03
2023-01-30T22:10:10.492Z,97450.81
2023-01-30T22:12:40.213Z,97453.00
2023-01-30T22:15:11.581Z,97469.69
2023-01-30T22:17:40.552Z,97453.53
2023-01-30T22:20:11.002Z,97459.16
2023-01-30T22:22:39.896Z,97466.47
2023-01-30T22:25:10.106Z,97465.91
2023-01-30T22:27:38.498Z,97475.59
2023-01-30T22:30:09.941Z,97466.19
2023-01-30T22:32:38.441Z,97464.88
2023-01-30T22:35:08.444Z,97467.59
2023-01-30T22:37:37.337Z,97453.00
2023-01-30T22:40:07.124Z,97460.84
2023-01-30T22:42:36.003Z,97462.19
2023-01-30T22:45:05.181Z,97468.59
2023-01-30T22:47:38.653Z,97465.03
2023-01-30T22:50:08.075Z,97477.22
2023-01-30T22:52:39.717Z,97484.53
2023-01-30T22:55:12.846Z,97488.53
2023-01-30T22:57:41.127Z,97482.84
2023-01-30T23:00:11.997Z,97494.78
2023-01-30T23:02:42.125Z,97490.97
2023-01-30T23:05:11.488Z,97470.22
2023-01-30T23:07:40.045Z,97478.59
2023-01-30T23:10:10.522Z,97472.66
2023-01-30T23:12:56.137Z,97484.88
2023-01-30T23:15:24.419Z,97492.66
2023-01-30T23:18:11.553Z,97479.47
2023-01-30T23:20:40.269Z,97468.13
2023-01-30T23:23:08.636Z,97472.66
2023-01-30T23:25:41.997Z,97468.59
2023-01-30T23:28:10.693Z,97477.75
2023-01-30T23:30:40.215Z,97491.28
2023-01-30T23:33:10.073Z,97481.31
2023-01-30T23:35:38.889Z,97474.28
2023-01-30T23:38:24.124Z,97475.69
2023-01-30T23:40:52.406Z,97479.09
2023-01-30T23:43:21.512Z,97464.47
2023-01-30T23:45:53.922Z,97472.88
2023-01-30T23:48:23.512Z,97475.78
2023-01-30T23:50:51.834Z,97478.22
2023-01-30T23:53:20.164Z,97473.59
2023-01-30T23:55:52.706Z,97475.69
2023-01-30T23:58:21.164Z,97463.03
